createdAt,value
2023-05-04T00:02:10.463Z,100.00
2023-05-04T00:04:37.200Z,100.00
2023-05-04T00:07:03.812Z,100.00
2023-05-04T00:09:31.754Z,100.00
2023-05-04T00:11:58.316Z,100.00
2023-05-04T00:14:24.960Z,100.00
2023-05-04T00:16:51.611Z,100.00
2023-05-04T00:19:19.549Z,100.00
2023-05-04T00:21:46.488Z,100.00
2023-05-04T00:24:13.124Z,100.00
2023-05-04T00:26:39.994Z,100.00
2023-05-04T00:29:06.574Z,100.00
2023-05-04T00:31:33.217Z,100.00
2023-05-04T00:33:59.789Z,100.00
2023-05-04T00:36:26.334Z,100.00
2023-05-04T00:38:55.168Z,100.00
2023-05-04T00:41:22.254Z,100.00
2023-05-04T00:43:49.224Z,100.00
2023-05-04T00:46:16.283Z,100.00
2023-05-04T00:48:45.444Z,100.00
2023-05-04T00:51:13.680Z,100.00
2023-05-04T00:53:41.371Z,100.00
2023-05-04T00:56:08.310Z,100.00
2023-05-04T00:58:35.221Z,100.00
2023-05-04T01:01:03.559Z,100.00
2023-05-04T01:03:31.421Z,100.00
2023-05-04T01:06:16.319Z,100.00
2023-05-04T01:08:47.577Z,100.00
2023-05-04T01:11:25.354Z,100.00
2023-05-04T01:13:52.805Z,100.00
2023-05-04T01:16:20.892Z,100.00
2023-05-04T01:18:47.594Z,100.00
2023-05-04T01:21:14.201Z,100.00
2023-05-04T01:23:40.918Z,100.00
2023-05-04T01:26:17.115Z,100.00
2023-05-04T01:29:03.062Z,100.00
2023-05-04T01:31:30.253Z,100.00
2023-05-04T01:33:57.585Z,100.00
2023-05-04T01:36:25.418Z,100.00
2023-05-04T01:38:57.658Z,100.00
2023-05-04T01:41:24.352Z,100.00
2023-05-04T01:43:51.097Z,100.00
2023-05-04T01:46:17.791Z,100.00
2023-05-04T01:48:46.746Z,100.00
2023-05-04T01:51:13.504Z,100.00
2023-05-04T01:53:40.060Z,100.00
2023-05-04T01:56:07.031Z,100.00
2023-05-04T01:58:33.588Z,100.00
2023-05-04T02:01:00.265Z,100.00
2023-05-04T02:03:26.947Z,100.00
2023-05-04T02:05:53.721Z,100.00
2023-05-04T02:08:20.356Z,100.00
2023-05-04T02:10:48.073Z,100.00
2023-05-04T02:13:14.729Z,100.00
2023-05-04T02:15:41.595Z,100.00
2023-05-04T02:18:08.318Z,100.00
2023-05-04T02:20:35.046Z,100.00
2023-05-04T02:23:01.784Z,100.00
2023-05-04T02:25:28.457Z,100.00
2023-05-04T02:27:55.059Z,100.00
2023-05-04T02:30:21.638Z,100.00
2023-05-04T02:32:48.197Z,100.00
2023-05-04T02:35:14.926Z,100.00
2023-05-04T02:37:41.538Z,100.00
2023-05-04T02:40:08.710Z,100.00
2023-05-04T02:42:35.472Z,100.00
2023-05-04T02:45:02.137Z,100.00
2023-05-04T02:47:28.753Z,100.00
2023-05-04T02:49:55.308Z,100.00
2023-05-04T02:52:21.893Z,100.00
2023-05-04T02:54:48.492Z,100.00
2023-05-04T02:57:15.070Z,100.00
2023-05-04T02:59:41.824Z,100.00
2023-05-04T03:02:08.350Z,100.00
2023-05-04T03:04:35.031Z,100.00
2023-05-04T03:07:01.752Z,100.00
2023-05-04T03:09:28.304Z,100.00
2023-05-04T03:11:55.165Z,100.00
2023-05-04T03:14:21.730Z,100.00
2023-05-04T03:16:48.382Z,100.00
2023-05-04T03:19:18.987Z,100.00
2023-05-04T03:21:46.703Z,100.00
2023-05-04T03:24:13.456Z,100.00
2023-05-04T03:26:40.146Z,100.00
2023-05-04T03:29:06.796Z,100.00
2023-05-04T03:31:33.515Z,100.00
2023-05-04T03:34:00.135Z,100.00
2023-05-04T03:36:26.741Z,100.00
2023-05-04T03:38:53.278Z,100.00
2023-05-04T03:41:19.822Z,100.00
2023-05-04T03:43:46.503Z,100.00
2023-05-04T03:46:13.284Z,100.00
2023-05-04T03:48:40.263Z,100.00
2023-05-04T03:51:07.489Z,100.00
2023-05-04T03:53:35.664Z,100.00
2023-05-04T03:56:02.841Z,100.00
2023-05-04T03:58:29.452Z,100.00
2023-05-04T04:00:56.085Z,100.00
2023-05-04T04:03:22.843Z,100.00
2023-05-04T04:05:50.110Z,100.00
2023-05-04T04:08:16.699Z,100.00
2023-05-04T04:10:43.507Z,100.00
2023-05-04T04:13:10.213Z,100.00
2023-05-04T04:15:36.852Z,100.00
2023-05-04T04:18:03.676Z,100.00
2023-05-04T04:20:30.330Z,100.00
2023-05-04T04:22:56.924Z,100.00
2023-05-04T04:25:24.494Z,100.00
2023-05-04T04:27:51.336Z,100.00
2023-05-04T04:30:18.037Z,100.00
2023-05-04T04:32:45.837Z,100.00
2023-05-04T04:35:12.583Z,100.00
2023-05-04T04:37:39.136Z,100.00
2023-05-04T04:40:07.782Z,100.00
2023-05-04T04:42:34.863Z,100.00
2023-05-04T04:45:05.301Z,100.00
2023-05-04T04:47:34.655Z,100.00
2023-05-04T04:50:01.675Z,100.00
2023-05-04T04:52:28.544Z,100.00
2023-05-04T04:54:55.208Z,100.00
2023-05-04T04:57:21.762Z,100.00
2023-05-04T04:59:48.340Z,100.00
2023-05-04T05:02:15.219Z,100.00
2023-05-04T05:04:41.900Z,100.00
2023-05-04T05:07:08.985Z,100.00
2023-05-04T05:09:35.952Z,100.00
2023-05-04T05:12:02.543Z,98.98
2023-05-04T05:14:29.123Z,97.62
2023-05-04T05:16:55.864Z,96.83
2023-05-04T05:19:22.462Z,96.74
2023-05-04T05:21:49.362Z,95.21
2023-05-04T05:24:17.244Z,96.58
2023-05-04T05:26:43.856Z,93.85
2023-05-04T05:29:10.405Z,92.39
2023-05-04T05:31:37.008Z,90.86
2023-05-04T05:34:03.629Z,88.18
2023-05-04T05:36:30.229Z,88.06
2023-05-04T05:38:56.750Z,86.17
2023-05-04T05:41:23.335Z,85.01
2023-05-04T05:43:49.948Z,85.04
2023-05-04T05:46:16.656Z,82.68
2023-05-04T05:48:43.327Z,83.33
2023-05-04T05:51:10.106Z,82.14
2023-05-04T05:53:36.670Z,80.41
2023-05-04T05:56:03.337Z,78.14
2023-05-04T05:58:29.915Z,77.15
2023-05-04T06:00:56.505Z,78.46
2023-05-04T06:03:23.202Z,76.79
2023-05-04T06:05:49.938Z,76.41
2023-05-04T06:08:16.480Z,77.00
2023-05-04T06:10:43.086Z,76.11
2023-05-04T06:13:09.698Z,76.17
2023-05-04T06:15:36.653Z,74.50
2023-05-04T06:18:03.447Z,74.48
2023-05-04T06:20:30.155Z,75.57
2023-05-04T06:22:57.216Z,74.00
2023-05-04T06:25:24.007Z,74.41
2023-05-04T06:27:50.791Z,73.50
2023-05-04T06:30:17.938Z,71.28
2023-05-04T06:32:44.538Z,70.29
2023-05-04T06:35:11.754Z,69.75
2023-05-04T06:37:38.408Z,68.64
2023-05-04T06:40:05.622Z,68.30
2023-05-04T06:42:32.193Z,67.50
2023-05-04T06:44:58.884Z,67.33
2023-05-04T06:47:25.550Z,65.93
2023-05-04T06:49:52.182Z,65.26
2023-05-04T06:52:18.723Z,65.44
2023-05-04T06:54:46.267Z,65.88
2023-05-04T06:57:12.933Z,65.97
2023-05-04T06:59:39.506Z,67.13
2023-05-04T07:02:06.485Z,65.16
2023-05-04T07:04:33.085Z,65.08
2023-05-04T07:06:59.651Z,63.56
2023-05-04T07:09:26.261Z,64.00
2023-05-04T07:11:52.838Z,65.34
2023-05-04T07:14:19.401Z,63.40
2023-05-04T07:16:46.201Z,64.03
2023-05-04T07:19:12.913Z,66.61
2023-05-04T07:21:39.432Z,65.13
2023-05-04T07:24:07.080Z,64.67
2023-05-04T07:26:33.871Z,62.55
2023-05-04T07:29:00.454Z,62.54
2023-05-04T07:31:29.502Z,61.72
2023-05-04T07:33:57.177Z,62.07
2023-05-04T07:36:26.558Z,61.52
2023-05-04T07:38:53.838Z,62.12
2023-05-04T07:41:20.498Z,63.20
2023-05-04T07:43:47.106Z,61.03
2023-05-04T07:46:13.904Z,61.77
2023-05-04T07:48:40.529Z,61.52
2023-05-04T07:51:12.829Z,60.43
2023-05-04T07:53:39.437Z,60.42
2023-05-04T07:56:13.946Z,59.96
2023-05-04T07:58:42.296Z,61.04
2023-05-04T08:01:08.884Z,61.77
2023-05-04T08:03:36.476Z,60.48
2023-05-04T08:06:03.306Z,60.77
2023-05-04T08:08:30.498Z,59.56
2023-05-04T08:11:07.978Z,58.23
2023-05-04T08:13:46.221Z,58.15
2023-05-04T08:16:13.581Z,59.34
2023-05-04T08:18:40.171Z,60.55
2023-05-04T08:21:07.002Z,60.40
2023-05-04T08:23:33.907Z,59.49
2023-05-04T08:26:04.365Z,57.61
2023-05-04T08:28:33.180Z,57.95
2023-05-04T08:30:59.776Z,57.51
2023-05-04T08:33:26.336Z,58.08
2023-05-04T08:35:52.954Z,53.99
2023-05-04T08:38:19.545Z,57.20
2023-05-04T08:40:46.465Z,55.91
2023-05-04T08:43:13.790Z,54.13
2023-05-04T08:45:41.207Z,54.42
2023-05-04T08:48:09.003Z,54.71
2023-05-04T08:50:37.283Z,54.56
2023-05-04T08:53:06.819Z,53.65
2023-05-04T08:55:37.782Z,53.78
2023-05-04T08:58:11.585Z,52.74
2023-05-04T09:00:39.142Z,53.59
2023-05-04T09:03:07.781Z,48.51
2023-05-04T09:05:35.399Z,50.92
2023-05-04T09:08:02.199Z,49.60
2023-05-04T09:10:30.464Z,49.14
2023-05-04T09:12:57.116Z,49.60
2023-05-04T09:15:24.176Z,46.18
2023-05-04T09:18:02.792Z,48.55
2023-05-04T09:20:30.789Z,48.10
2023-05-04T09:23:08.313Z,48.59
2023-05-04T09:25:47.478Z,48.04
2023-05-04T09:28:14.805Z,45.00
2023-05-04T09:30:41.985Z,45.01
2023-05-04T09:33:09.227Z,47.26
2023-05-04T09:35:35.903Z,44.17
2023-05-04T09:38:02.532Z,43.62
2023-05-04T09:40:32.626Z,42.55
2023-05-04T09:43:01.102Z,46.16
2023-05-04T09:45:39.443Z,44.74
2023-05-04T09:48:16.431Z,42.83
2023-05-04T09:50:52.302Z,42.09
2023-05-04T09:53:22.080Z,45.13
2023-05-04T09:56:02.173Z,43.03
2023-05-04T09:58:30.880Z,43.54
2023-05-04T10:01:01.151Z,43.96
2023-05-04T10:03:28.757Z,44.03
2023-05-04T10:05:55.936Z,41.49
2023-05-04T10:08:23.496Z,43.38
2023-05-04T10:10:51.372Z,42.13
2023-05-04T10:13:18.114Z,44.51
2023-05-04T10:16:16.230Z,42.29
2023-05-04T10:19:01.683Z,42.82
2023-05-04T10:22:05.949Z,39.05
2023-05-04T10:25:04.703Z,42.96
2023-05-04T10:27:39.519Z,42.99
2023-05-04T10:30:07.706Z,43.23
2023-05-04T10:32:39.777Z,42.03
2023-05-04T10:35:07.677Z,43.39
2023-05-04T10:37:37.555Z,41.05
2023-05-04T10:40:10.951Z,42.18
2023-05-04T10:42:42.934Z,43.41
2023-05-04T10:45:10.538Z,41.77
2023-05-04T10:47:40.787Z,41.25
2023-05-04T10:50:14.487Z,41.68
2023-05-04T10:52:53.730Z,40.77
2023-05-04T10:55:22.087Z,40.83
2023-05-04T10:57:55.472Z,40.32
2023-05-04T11:00:22.877Z,39.16
2023-05-04T11:02:52.458Z,40.92
2023-05-04T11:05:20.392Z,39.30
2023-05-04T11:07:50.847Z,40.20
2023-05-04T11:10:25.897Z,40.57
2023-05-04T11:12:55.354Z,41.59
2023-05-04T11:15:22.083Z,41.60
2023-05-04T11:17:52.850Z,41.55
2023-05-04T11:20:24.070Z,41.17
2023-05-04T11:22:53.466Z,41.69
2023-05-04T11:25:30.428Z,41.08
2023-05-04T11:27:58.879Z,41.48
2023-05-04T11:30:35.563Z,39.45
2023-05-04T11:33:05.338Z,39.13
2023-05-04T11:35:32.387Z,39.74
2023-05-04T11:37:59.103Z,39.31
2023-05-04T11:40:26.972Z,41.11
2023-05-04T11:42:57.708Z,41.82
2023-05-04T11:45:35.337Z,41.19
2023-05-04T11:48:02.622Z,40.73
2023-05-04T11:50:29.705Z,39.98
2023-05-04T11:53:07.207Z,40.87
2023-05-04T11:55:33.977Z,41.26
2023-05-04T11:58:03.379Z,43.99
2023-05-04T12:00:41.586Z,44.27
2023-05-04T12:03:12.169Z,44.89
2023-05-04T12:05:40.004Z,44.97
2023-05-04T12:08:08.811Z,43.14
2023-05-04T12:10:35.469Z,43.25
2023-05-04T12:13:02.500Z,43.09
2023-05-04T12:15:39.204Z,43.35
2023-05-04T12:18:05.959Z,44.27
2023-05-04T12:20:33.537Z,41.86
2023-05-04T12:23:06.145Z,42.24
2023-05-04T12:25:32.931Z,41.21
2023-05-04T12:27:59.905Z,42.71
2023-05-04T12:30:26.452Z,43.12
2023-05-04T12:32:53.113Z,41.08
2023-05-04T12:35:19.718Z,41.96
2023-05-04T12:37:46.283Z,42.56
2023-05-04T12:40:27.397Z,43.61
2023-05-04T12:42:55.066Z,45.33
2023-05-04T12:45:22.717Z,44.89
2023-05-04T12:47:49.496Z,45.53
2023-05-04T12:50:16.315Z,45.75
2023-05-04T12:52:42.893Z,47.65
2023-05-04T12:55:09.743Z,47.91
2023-05-04T12:57:36.307Z,49.38
2023-05-04T13:00:04.179Z,50.39
2023-05-04T13:02:30.860Z,54.31
2023-05-04T13:04:58.671Z,60.67
2023-05-04T13:07:25.249Z,66.13
2023-05-04T13:09:51.834Z,61.34
2023-05-04T13:12:18.569Z,64.03
2023-05-04T13:14:45.323Z,67.59
2023-05-04T13:17:12.064Z,69.46
2023-05-04T13:19:38.713Z,72.63
2023-05-04T13:22:05.335Z,70.81
2023-05-04T13:24:31.924Z,73.92
2023-05-04T13:26:58.497Z,74.71
2023-05-04T13:29:25.049Z,75.01
2023-05-04T13:31:51.666Z,76.09
2023-05-04T13:34:18.304Z,76.46
2023-05-04T13:36:44.924Z,77.27
2023-05-04T13:39:11.889Z,77.59
2023-05-04T13:41:38.558Z,77.67
2023-05-04T13:44:05.173Z,75.52
2023-05-04T13:46:31.837Z,79.25
2023-05-04T13:48:58.416Z,78.72
2023-05-04T13:51:24.984Z,79.56
2023-05-04T13:53:51.551Z,80.56
2023-05-04T13:56:18.115Z,77.77
2023-05-04T13:58:44.888Z,72.87
2023-05-04T14:01:11.565Z,67.70
2023-05-04T14:03:38.261Z,66.43
2023-05-04T14:06:05.076Z,67.24
2023-05-04T14:08:31.623Z,67.78
2023-05-04T14:10:58.747Z,66.53
2023-05-04T14:13:25.422Z,66.20
2023-05-04T14:15:52.542Z,68.06
2023-05-04T14:18:19.161Z,68.46
2023-05-04T14:20:45.788Z,68.12
2023-05-04T14:23:12.449Z,67.12
2023-05-04T14:25:42.019Z,69.39
2023-05-04T14:28:08.973Z,65.66
2023-05-04T14:30:35.696Z,62.97
2023-05-04T14:33:03.756Z,64.09
2023-05-04T14:35:30.575Z,53.51
2023-05-04T14:37:57.188Z,51.80
2023-05-04T14:40:23.782Z,49.40
2023-05-04T14:42:50.494Z,47.88
2023-05-04T14:45:17.388Z,46.59
2023-05-04T14:47:43.974Z,44.02
2023-05-04T14:50:11.530Z,43.32
2023-05-04T14:52:38.192Z,43.42
2023-05-04T14:55:06.755Z,41.98
2023-05-04T14:57:33.639Z,36.77
2023-05-04T15:00:00.343Z,36.30
2023-05-04T15:02:26.953Z,36.93
2023-05-04T15:04:53.590Z,36.38
2023-05-04T15:07:20.949Z,37.36
2023-05-04T15:09:47.692Z,36.92
2023-05-04T15:12:14.294Z,36.02
2023-05-04T15:14:40.926Z,35.65
2023-05-04T15:17:07.725Z,38.47
2023-05-04T15:19:37.838Z,39.11
2023-05-04T15:22:05.140Z,37.64
2023-05-04T15:24:31.940Z,36.53
2023-05-04T15:26:58.744Z,34.77
2023-05-04T15:29:25.817Z,33.73
2023-05-04T15:31:52.397Z,33.24
2023-05-04T15:34:19.309Z,33.50
2023-05-04T15:36:46.033Z,34.58
2023-05-04T15:39:13.424Z,35.99
2023-05-04T15:41:42.248Z,37.65
2023-05-04T15:44:08.819Z,39.86
2023-05-04T15:46:35.881Z,41.98
2023-05-04T15:49:02.531Z,41.23
2023-05-04T15:51:30.731Z,41.47
2023-05-04T15:53:57.626Z,42.25
2023-05-04T15:56:24.258Z,43.63
2023-05-04T15:58:50.826Z,41.88
2023-05-04T16:01:17.587Z,40.68
2023-05-04T16:03:44.269Z,38.83
2023-05-04T16:06:11.861Z,38.32
2023-05-04T16:08:39.301Z,37.67
2023-05-04T16:11:08.768Z,37.31
2023-05-04T16:13:35.398Z,38.05
2023-05-04T16:16:02.143Z,38.46
2023-05-04T16:18:28.730Z,38.92
2023-05-04T16:20:55.365Z,38.87
2023-05-04T16:23:21.973Z,38.78
2023-05-04T16:25:48.590Z,38.66
2023-05-04T16:28:15.156Z,39.43
2023-05-04T16:30:42.955Z,38.83
2023-05-04T16:33:09.626Z,39.17
2023-05-04T16:35:36.743Z,39.13
2023-05-04T16:38:04.010Z,39.37
2023-05-04T16:40:32.718Z,39.49
2023-05-04T16:42:59.522Z,40.73
2023-05-04T16:45:31.201Z,40.81
2023-05-04T16:47:58.739Z,41.18
2023-05-04T16:50:25.428Z,40.28
2023-05-04T16:52:52.007Z,41.49
2023-05-04T16:55:19.239Z,41.84
2023-05-04T16:57:46.108Z,42.43
2023-05-04T17:00:13.980Z,44.25
2023-05-04T17:02:40.702Z,44.79
2023-05-04T17:05:10.209Z,46.55
2023-05-04T17:07:39.570Z,47.13
2023-05-04T17:10:08.129Z,47.59
2023-05-04T17:12:35.850Z,48.36
2023-05-04T17:15:03.563Z,49.11
2023-05-04T17:17:30.218Z,50.18
2023-05-04T17:19:56.890Z,50.82
2023-05-04T17:22:25.286Z,51.82
2023-05-04T17:24:52.452Z,51.07
2023-05-04T17:27:19.224Z,52.97
2023-05-04T17:29:45.915Z,53.64
2023-05-04T17:32:12.544Z,54.81
2023-05-04T17:34:39.225Z,55.61
2023-05-04T17:37:05.834Z,56.21
2023-05-04T17:39:32.481Z,56.60
2023-05-04T17:41:59.732Z,56.33
2023-05-04T17:44:28.267Z,56.92
2023-05-04T17:46:54.965Z,57.43
2023-05-04T17:49:21.524Z,57.42
2023-05-04T17:51:49.377Z,57.32
2023-05-04T17:54:17.121Z,58.56
2023-05-04T17:56:43.813Z,58.74
2023-05-04T17:59:10.416Z,59.86
2023-05-04T18:01:37.063Z,58.74
2023-05-04T18:04:04.239Z,59.91
2023-05-04T18:06:32.629Z,59.26
2023-05-04T18:09:00.691Z,61.24
2023-05-04T18:11:27.411Z,61.18
2023-05-04T18:13:56.625Z,62.81
2023-05-04T18:16:24.306Z,62.88
2023-05-04T18:18:51.368Z,64.51
2023-05-04T18:21:18.292Z,64.96
2023-05-04T18:23:45.053Z,64.73
2023-05-04T18:26:17.963Z,65.10
2023-05-04T18:28:44.523Z,68.75
2023-05-04T18:31:11.114Z,66.47
2023-05-04T18:33:38.304Z,66.83
2023-05-04T18:36:05.392Z,67.25
2023-05-04T18:38:33.136Z,67.76
2023-05-04T18:40:59.700Z,69.17
2023-05-04T18:43:26.265Z,71.26
2023-05-04T18:45:52.845Z,71.19
2023-05-04T18:48:19.383Z,72.67
2023-05-04T18:50:54.026Z,72.05
2023-05-04T18:53:20.897Z,72.00
2023-05-04T18:55:47.455Z,73.20
2023-05-04T18:58:13.994Z,74.22
2023-05-04T19:00:42.376Z,76.19
2023-05-04T19:03:09.070Z,76.47
2023-05-04T19:05:36.124Z,78.48
2023-05-04T19:08:02.662Z,78.88
2023-05-04T19:10:29.251Z,78.14
2023-05-04T19:12:56.027Z,79.12
2023-05-04T19:15:24.023Z,79.51
2023-05-04T19:17:50.639Z,80.23
2023-05-04T19:20:18.723Z,81.25
2023-05-04T19:22:45.985Z,80.62
2023-05-04T19:25:23.349Z,80.42
2023-05-04T19:28:00.519Z,82.18
2023-05-04T19:30:27.244Z,83.19
2023-05-04T19:32:53.859Z,83.72
2023-05-04T19:35:20.485Z,85.11
2023-05-04T19:37:47.832Z,85.66
2023-05-04T19:40:14.501Z,85.81
2023-05-04T19:42:46.113Z,87.06
2023-05-04T19:45:14.060Z,87.28
2023-05-04T19:47:41.695Z,86.16
2023-05-04T19:50:11.564Z,86.74
2023-05-04T19:52:38.498Z,86.04
2023-05-04T19:55:06.228Z,85.73
2023-05-04T19:57:33.145Z,86.51
2023-05-04T19:59:59.826Z,86.86
2023-05-04T20:02:26.887Z,88.88
2023-05-04T20:04:53.885Z,89.18
2023-05-04T20:07:20.520Z,89.97
2023-05-04T20:09:47.108Z,90.74
2023-05-04T20:12:13.717Z,91.41
2023-05-04T20:14:41.232Z,91.48
2023-05-04T20:17:07.909Z,92.24
2023-05-04T20:19:34.549Z,92.79
2023-05-04T20:22:01.113Z,92.23
2023-05-04T20:24:27.861Z,92.77
2023-05-04T20:26:54.434Z,92.93
2023-05-04T20:29:21.204Z,93.09
2023-05-04T20:31:47.799Z,93.41
2023-05-04T20:34:15.104Z,94.34
2023-05-04T20:36:42.892Z,93.41
2023-05-04T20:39:10.200Z,93.36
2023-05-04T20:41:37.001Z,93.47
2023-05-04T20:44:04.373Z,93.35
2023-05-04T20:46:31.880Z,94.18
2023-05-04T20:48:59.469Z,94.19
2023-05-04T20:51:27.171Z,95.55
2023-05-04T20:53:53.840Z,97.04
2023-05-04T20:56:20.412Z,98.48
2023-05-04T20:58:46.975Z,98.09
2023-05-04T21:01:13.548Z,98.51
2023-05-04T21:03:40.318Z,98.00
2023-05-04T21:06:06.964Z,98.13
2023-05-04T21:08:33.547Z,98.46
2023-05-04T21:11:00.312Z,98.87
2023-05-04T21:13:26.921Z,98.57
2023-05-04T21:15:53.485Z,98.52
2023-05-04T21:18:20.106Z,98.91
2023-05-04T21:20:46.931Z,99.04
2023-05-04T21:23:13.550Z,99.29
2023-05-04T21:25:40.392Z,99.49
2023-05-04T21:28:06.980Z,99.15
2023-05-04T21:30:33.582Z,98.39
2023-05-04T21:33:00.777Z,97.73
2023-05-04T21:35:31.011Z,97.53
2023-05-04T21:37:58.739Z,98.23
2023-05-04T21:40:28.655Z,99.21
2023-05-04T21:42:55.325Z,99.21
2023-05-04T21:45:21.940Z,98.70
2023-05-04T21:47:48.786Z,98.71
2023-05-04T21:50:16.281Z,99.02
2023-05-04T21:52:42.868Z,98.43
2023-05-04T21:55:09.694Z,98.41
2023-05-04T21:57:36.388Z,98.91
2023-05-04T22:00:06.658Z,98.40
2023-05-04T22:02:33.427Z,98.43
2023-05-04T22:05:00.068Z,98.55
2023-05-04T22:07:26.859Z,98.04
2023-05-04T22:09:53.444Z,97.30
2023-05-04T22:12:20.005Z,97.44
2023-05-04T22:14:46.701Z,97.08
2023-05-04T22:17:13.320Z,96.59
2023-05-04T22:19:39.919Z,96.69
2023-05-04T22:22:06.700Z,94.11
2023-05-04T22:24:33.286Z,91.97
2023-05-04T22:26:59.826Z,87.49
2023-05-04T22:29:26.387Z,83.65
2023-05-04T22:31:52.950Z,83.31
2023-05-04T22:34:19.565Z,81.19
2023-05-04T22:36:46.697Z,79.90
2023-05-04T22:39:13.288Z,78.77
2023-05-04T22:41:39.815Z,77.59
2023-05-04T22:44:07.395Z,76.92
2023-05-04T22:46:34.085Z,77.44
2023-05-04T22:49:00.700Z,76.00
2023-05-04T22:51:27.462Z,75.94
2023-05-04T22:53:54.032Z,73.82
2023-05-04T22:56:20.949Z,74.13
2023-05-04T22:58:48.311Z,73.41
2023-05-04T23:01:14.958Z,73.00
2023-05-04T23:03:41.725Z,72.51
2023-05-04T23:06:08.872Z,71.35
2023-05-04T23:08:35.526Z,70.53
2023-05-04T23:11:02.097Z,71.26
2023-05-04T23:13:28.685Z,71.32
2023-05-04T23:15:55.365Z,71.15
2023-05-04T23:18:22.063Z,71.31
2023-05-04T23:20:48.621Z,70.58
2023-05-04T23:23:15.160Z,70.18
2023-05-04T23:25:41.722Z,71.10
2023-05-04T23:28:08.288Z,70.13
2023-05-04T23:30:34.835Z,70.94
2023-05-04T23:33:01.549Z,71.66
2023-05-04T23:35:28.232Z,71.75
2023-05-04T23:37:54.843Z,71.74
2023-05-04T23:40:21.710Z,72.06
2023-05-04T23:42:51.102Z,72.25
2023-05-04T23:45:17.749Z,72.74
2023-05-04T23:47:44.432Z,71.80
2023-05-04T23:50:11.654Z,73.33
2023-05-04T23:52:38.263Z,73.18
2023-05-04T23:55:05.340Z,74.14
2023-05-04T23:57:32.171Z,73.79
2023-05-04T23:59:58.760Z,75.56
